createdAt,value
2022-10-15T00:00:42.195Z,9.33
2022-10-15T00:03:08.513Z,10.70
2022-10-15T00:05:38.371Z,9.47
2022-10-15T00:08:05.462Z,9.40
2022-10-15T00:10:32.037Z,10.43
2022-10-15T00:12:58.412Z,10.63
2022-10-15T00:15:24.787Z,10.37
2022-10-15T00:17:51.218Z,10.77
2022-10-15T00:20:17.654Z,11.87
2022-10-15T00:22:44.016Z,11.73
2022-10-15T00:25:10.416Z,10.50
2022-10-15T00:27:37.264Z,11.90
2022-10-15T00:30:04.795Z,11.83
2022-10-15T00:32:31.186Z,12.00
2022-10-15T00:34:57.853Z,12.33
2022-10-15T00:37:24.642Z,11.80
2022-10-15T00:39:51.088Z,12.07
2022-10-15T00:42:17.865Z,12.10
2022-10-15T00:44:49.185Z,13.53
2022-10-15T00:47:17.741Z,12.27
2022-10-15T00:49:46.421Z,13.00
2022-10-15T00:52:16.117Z,12.90
2022-10-15T00:54:44.350Z,13.33
2022-10-15T00:57:11.194Z,12.37
2022-10-15T00:59:39.413Z,13.20
2022-10-15T01:02:06.650Z,13.57
2022-10-15T01:04:33.325Z,14.67
2022-10-15T01:06:59.734Z,12.97
2022-10-15T01:09:26.426Z,12.73
2022-10-15T01:11:54.040Z,14.50
2022-10-15T01:14:26.163Z,15.10
2022-10-15T01:16:56.081Z,14.17
2022-10-15T01:19:22.375Z,17.90
2022-10-15T01:21:55.041Z,17.27
2022-10-15T01:24:33.997Z,16.47
2022-10-15T01:27:06.224Z,18.97
2022-10-15T01:29:51.373Z,17.47
2022-10-15T01:32:27.154Z,18.43
2022-10-15T01:35:08.452Z,19.43
2022-10-15T01:37:55.036Z,18.53
2022-10-15T01:40:25.629Z,18.77
2022-10-15T01:42:56.650Z,18.90
2022-10-15T01:45:27.572Z,18.43
2022-10-15T01:47:56.159Z,17.87
2022-10-15T01:50:23.923Z,18.90
2022-10-15T01:52:51.702Z,18.23
2022-10-15T01:55:19.606Z,19.63
2022-10-15T01:57:46.226Z,19.10
2022-10-15T02:00:12.675Z,19.90
2022-10-15T02:02:39.374Z,18.73
2022-10-15T02:05:07.617Z,19.13
2022-10-15T02:07:40.093Z,18.67
2022-10-15T02:10:15.506Z,19.87
2022-10-15T02:12:44.826Z,19.03
2022-10-15T02:15:31.037Z,20.00
2022-10-15T02:18:05.299Z,18.57
2022-10-15T02:20:50.016Z,20.67
2022-10-15T02:23:19.741Z,18.63
2022-10-15T02:25:47.625Z,19.97
2022-10-15T02:28:15.001Z,19.93
2022-10-15T02:30:42.455Z,19.97
2022-10-15T02:33:09.237Z,20.03
2022-10-15T02:35:35.855Z,19.77
2022-10-15T02:38:04.212Z,19.00
2022-10-15T02:40:32.756Z,21.57
2022-10-15T02:42:59.950Z,21.27
2022-10-15T02:45:26.319Z,21.47
2022-10-15T02:47:52.630Z,19.50
2022-10-15T02:50:19.002Z,20.03
2022-10-15T02:52:45.354Z,20.97
2022-10-15T02:55:12.052Z,21.13
2022-10-15T02:57:38.613Z,19.47
2022-10-15T03:00:05.326Z,20.20
2022-10-15T03:02:31.646Z,19.80
2022-10-15T03:04:57.992Z,20.67
2022-10-15T03:07:24.640Z,19.60
2022-10-15T03:09:51.221Z,20.53
2022-10-15T03:12:17.708Z,19.03
2022-10-15T03:14:44.047Z,19.20
2022-10-15T03:17:10.370Z,19.23
2022-10-15T03:19:36.721Z,19.27
2022-10-15T03:22:03.054Z,17.20
2022-10-15T03:24:29.370Z,17.27
2022-10-15T03:26:55.714Z,16.47
2022-10-15T03:29:22.065Z,16.13
2022-10-15T03:31:49.030Z,15.57
2022-10-15T03:34:15.505Z,14.60
2022-10-15T03:36:41.851Z,14.43
2022-10-15T03:39:08.533Z,14.40
2022-10-15T03:41:34.899Z,17.00
2022-10-15T03:44:02.139Z,30.70
2022-10-15T03:46:28.459Z,16.77
2022-10-15T03:48:54.779Z,14.63
2022-10-15T03:51:24.500Z,15.47
2022-10-15T03:53:53.430Z,15.80
2022-10-15T03:56:19.777Z,16.77
2022-10-15T03:58:46.363Z,16.33
2022-10-15T04:01:14.243Z,16.83
2022-10-15T04:03:40.749Z,17.23
2022-10-15T04:06:07.474Z,17.40
2022-10-15T04:08:34.235Z,18.33
2022-10-15T04:11:00.687Z,16.07
2022-10-15T04:13:27.867Z,17.90
2022-10-15T04:15:54.248Z,15.70
2022-10-15T04:18:21.897Z,18.07
2022-10-15T04:20:48.731Z,16.17
2022-10-15T04:23:15.697Z,17.63
2022-10-15T04:25:42.150Z,16.70
2022-10-15T04:28:09.048Z,16.63
2022-10-15T04:30:35.562Z,18.13
2022-10-15T04:33:01.928Z,58.73
2022-10-15T04:35:28.284Z,19.87
2022-10-15T04:37:54.624Z,19.90
2022-10-15T04:40:21.042Z,17.73
2022-10-15T04:42:47.377Z,18.47
2022-10-15T04:45:13.835Z,17.27
2022-10-15T04:47:40.219Z,17.50
2022-10-15T04:50:06.805Z,17.87
2022-10-15T04:52:34.455Z,18.30
2022-10-15T04:55:02.969Z,19.23
2022-10-15T04:57:29.308Z,20.60
2022-10-15T04:59:57.734Z,18.53
2022-10-15T05:02:24.457Z,20.10
2022-10-15T05:04:50.894Z,19.83
2022-10-15T05:07:17.212Z,20.20
2022-10-15T05:09:46.286Z,19.83
2022-10-15T05:12:12.960Z,19.40
2022-10-15T05:14:39.289Z,21.80
2022-10-15T05:17:05.633Z,21.43
2022-10-15T05:19:32.026Z,21.23
2022-10-15T05:21:58.391Z,20.27
2022-10-15T05:24:24.802Z,20.97
2022-10-15T05:26:51.163Z,21.00
2022-10-15T05:29:17.501Z,20.30
2022-10-15T05:31:43.913Z,19.60
2022-10-15T05:34:10.266Z,22.07
2022-10-15T05:36:37.098Z,21.07
2022-10-15T05:39:04.447Z,21.80
2022-10-15T05:41:31.203Z,20.50
2022-10-15T05:43:58.426Z,20.37
2022-10-15T05:46:25.139Z,21.07
2022-10-15T05:48:52.292Z,22.17
2022-10-15T05:51:18.742Z,21.67
2022-10-15T05:53:46.405Z,22.73
2022-10-15T05:56:13.631Z,21.73
2022-10-15T05:58:40.677Z,20.67
2022-10-15T06:01:08.516Z,20.27
2022-10-15T06:03:35.082Z,22.10
2022-10-15T06:06:01.624Z,21.27
2022-10-15T06:08:28.633Z,19.90
2022-10-15T06:10:56.203Z,21.13
2022-10-15T06:13:23.356Z,20.97
2022-10-15T06:15:49.762Z,20.87
2022-10-15T06:18:16.444Z,23.30
2022-10-15T06:20:43.668Z,22.67
2022-10-15T06:23:10.625Z,22.13
2022-10-15T06:25:37.069Z,23.97
2022-10-15T06:28:07.322Z,22.40
2022-10-15T06:30:33.747Z,24.97
2022-10-15T06:33:00.232Z,23.20
2022-10-15T06:35:27.100Z,24.37
2022-10-15T06:37:53.533Z,23.30
2022-10-15T06:40:19.895Z,25.17
2022-10-15T06:42:46.235Z,22.67
2022-10-15T06:45:13.433Z,22.40
2022-10-15T06:47:40.632Z,23.50
2022-10-15T06:50:07.630Z,23.43
2022-10-15T06:52:34.174Z,22.80
2022-10-15T06:55:00.764Z,23.53
2022-10-15T06:57:27.601Z,24.23
2022-10-15T06:59:54.039Z,24.07
2022-10-15T07:02:20.816Z,24.27
2022-10-15T07:04:47.458Z,23.00
2022-10-15T07:07:14.180Z,23.30
2022-10-15T07:09:40.498Z,24.97
2022-10-15T07:12:06.929Z,24.30
2022-10-15T07:14:33.267Z,23.10
2022-10-15T07:16:59.599Z,22.13
2022-10-15T07:19:26.319Z,23.50
2022-10-15T07:21:52.655Z,26.07
2022-10-15T07:24:18.994Z,22.83
2022-10-15T07:26:47.214Z,23.13
2022-10-15T07:29:13.609Z,22.10
2022-10-15T07:31:40.010Z,21.97
2022-10-15T07:34:06.396Z,21.70
2022-10-15T07:36:32.724Z,21.53
2022-10-15T07:38:59.035Z,21.33
2022-10-15T07:41:25.441Z,22.40
2022-10-15T07:43:52.298Z,22.07
2022-10-15T07:46:18.687Z,20.90
2022-10-15T07:48:45.092Z,21.10
2022-10-15T07:51:11.888Z,21.00
2022-10-15T07:53:38.439Z,21.23
2022-10-15T07:56:08.986Z,25.03
2022-10-15T07:58:37.996Z,20.77
2022-10-15T08:01:08.138Z,20.33
2022-10-15T08:03:34.782Z,20.47
2022-10-15T08:06:01.919Z,20.07
2022-10-15T08:08:28.594Z,19.50
2022-10-15T08:10:55.040Z,20.63
2022-10-15T08:13:21.918Z,19.83
2022-10-15T08:15:48.247Z,18.77
2022-10-15T08:18:14.587Z,19.00
2022-10-15T08:20:41.024Z,19.80
2022-10-15T08:23:13.583Z,18.90
2022-10-15T08:25:40.991Z,18.87
2022-10-15T08:31:04.172Z,18.50
2022-10-15T08:33:32.632Z,19.90
2022-10-15T08:35:59.065Z,18.60
2022-10-15T08:38:25.450Z,20.30
2022-10-15T08:40:58.998Z,19.90
2022-10-15T08:43:38.491Z,18.93
2022-10-15T08:46:09.908Z,19.50
2022-10-15T08:48:44.467Z,18.67
2022-10-15T08:51:12.882Z,18.53
2022-10-15T08:53:53.775Z,17.33
2022-10-15T08:56:39.273Z,17.23
2022-10-15T08:59:17.564Z,18.23
2022-10-15T09:01:50.418Z,18.20
2022-10-15T09:04:19.576Z,17.80
2022-10-15T09:06:46.935Z,17.77
2022-10-15T09:09:19.425Z,17.23
2022-10-15T09:11:58.404Z,18.73
2022-10-15T09:14:28.679Z,18.40
2022-10-15T09:16:55.037Z,17.30
2022-10-15T09:19:22.482Z,17.73
2022-10-15T09:21:50.039Z,16.20
2022-10-15T09:24:27.796Z,17.53
2022-10-15T09:27:09.938Z,17.70
2022-10-15T09:29:47.361Z,15.93
2022-10-15T09:32:18.735Z,15.80
2022-10-15T09:34:50.875Z,14.70
2022-10-15T09:37:43.666Z,14.80
2022-10-15T09:40:22.279Z,15.63
2022-10-15T09:42:50.119Z,12.13
2022-10-15T09:45:16.699Z,13.50
2022-10-15T09:47:44.024Z,13.70
2022-10-15T09:50:12.162Z,12.32
2022-10-15T09:52:45.432Z,13.75
2022-10-15T09:55:28.963Z,13.95
2022-10-15T09:57:56.550Z,12.70
2022-10-15T10:00:22.938Z,13.10
2022-10-15T10:03:07.124Z,12.88
2022-10-15T10:05:35.569Z,13.40
2022-10-15T10:08:18.937Z,13.37
2022-10-15T10:10:53.334Z,13.50
2022-10-15T10:13:25.630Z,13.60
2022-10-15T10:15:58.325Z,12.87
2022-10-15T10:18:26.010Z,13.50
2022-10-15T10:20:59.158Z,13.90
2022-10-15T10:23:36.527Z,13.60
2022-10-15T10:26:05.628Z,12.13
2022-10-15T10:28:33.672Z,12.10
2022-10-15T10:31:04.921Z,11.60
2022-10-15T10:33:36.173Z,11.10
2022-10-15T10:36:03.342Z,11.10
2022-10-15T10:38:31.966Z,10.93
2022-10-15T10:41:07.722Z,11.57
2022-10-15T10:43:39.085Z,11.00
2022-10-15T10:46:16.423Z,11.43
2022-10-15T10:48:44.008Z,12.53
2022-10-15T10:51:12.013Z,12.27
2022-10-15T10:53:58.008Z,10.97
2022-10-15T10:56:28.160Z,10.43
2022-10-15T10:59:00.151Z,10.30
2022-10-15T11:01:27.244Z,9.00
2022-10-15T11:03:53.746Z,9.93
2022-10-15T11:06:27.451Z,9.87
2022-10-15T11:09:05.865Z,9.97
2022-10-15T11:11:37.159Z,9.47
2022-10-15T11:14:03.753Z,8.70
2022-10-15T11:16:49.177Z,7.70
2022-10-15T11:19:50.441Z,7.23
2022-10-15T11:22:23.352Z,7.47
2022-10-15T11:25:06.605Z,7.17
2022-10-15T11:27:45.919Z,6.77
2022-10-15T11:30:12.457Z,5.87
2022-10-15T11:33:06.041Z,5.03
2022-10-15T11:35:59.053Z,5.07
2022-10-15T11:38:29.682Z,5.57
2022-10-15T11:41:08.912Z,5.80
2022-10-15T11:43:38.243Z,6.00
2022-10-15T11:46:12.924Z,4.97
2022-10-15T11:48:57.593Z,5.10
2022-10-15T11:51:33.186Z,4.60
2022-10-15T11:54:13.373Z,4.00
2022-10-15T11:56:47.539Z,4.03
2022-10-15T11:59:46.569Z,2.80
2022-10-15T12:02:18.689Z,2.93
2022-10-15T12:04:47.973Z,3.10
2022-10-15T12:07:22.721Z,2.87
2022-10-15T12:09:52.367Z,2.70
2022-10-15T12:12:22.116Z,4.87
2022-10-15T12:15:01.124Z,2.30
2022-10-15T12:17:30.568Z,2.50
2022-10-15T12:20:00.820Z,2.17
2022-10-15T12:22:59.807Z,2.00
2022-10-15T12:25:35.022Z,2.07
2022-10-15T12:28:03.562Z,2.07
2022-10-15T12:30:34.344Z,2.63
2022-10-15T12:33:01.599Z,2.63
2022-10-15T12:35:35.506Z,2.47
2022-10-15T12:38:16.427Z,2.43
2022-10-15T12:40:42.810Z,2.33
2022-10-15T12:43:14.040Z,2.80
2022-10-15T12:45:41.667Z,2.27
2022-10-15T12:48:07.979Z,2.20
2022-10-15T12:50:35.266Z,2.67
2022-10-15T12:53:02.874Z,2.60
2022-10-15T12:55:38.934Z,2.53
2022-10-15T12:58:05.385Z,2.57
2022-10-15T13:00:33.917Z,2.67
2022-10-15T13:03:09.663Z,2.50
2022-10-15T13:05:36.172Z,2.40
2022-10-15T13:08:12.061Z,2.53
2022-10-15T13:10:46.171Z,2.50
2022-10-15T13:13:14.600Z,2.30
2022-10-15T13:15:41.283Z,2.40
2022-10-15T13:18:09.027Z,2.40
2022-10-15T13:20:40.147Z,2.50
2022-10-15T13:23:33.042Z,2.90
2022-10-15T13:26:19.347Z,3.53
2022-10-15T13:28:46.481Z,3.50
2022-10-15T13:31:30.850Z,3.47
2022-10-15T13:34:13.739Z,3.60
2022-10-15T13:36:40.130Z,3.40
2022-10-15T13:39:08.138Z,3.97
2022-10-15T13:41:36.998Z,3.83
2022-10-15T13:44:04.036Z,4.00
2022-10-15T13:46:31.903Z,4.40
2022-10-15T13:48:59.798Z,4.13
2022-10-15T13:51:32.434Z,5.10
2022-10-15T13:53:59.531Z,4.73
2022-10-15T13:56:30.703Z,7.97
2022-10-15T13:58:58.389Z,5.97
2022-10-15T14:01:25.122Z,6.00
2022-10-15T14:03:54.250Z,6.10
2022-10-15T14:06:21.819Z,6.47
2022-10-15T14:08:50.011Z,5.90
2022-10-15T14:11:17.772Z,6.43
2022-10-15T14:13:47.987Z,5.93
2022-10-15T14:16:31.412Z,8.10
2022-10-15T14:19:07.305Z,6.80
2022-10-15T14:21:34.491Z,7.20
2022-10-15T14:24:15.395Z,7.37
2022-10-15T14:26:41.966Z,7.43
2022-10-15T14:29:16.845Z,7.97
2022-10-15T14:31:46.094Z,8.50
2022-10-15T14:34:29.785Z,8.50
2022-10-15T14:36:56.301Z,8.40
2022-10-15T14:39:27.186Z,8.53
2022-10-15T14:41:57.443Z,8.03
2022-10-15T14:44:23.873Z,8.33
2022-10-15T14:46:51.964Z,8.70
2022-10-15T14:49:18.311Z,10.60
2022-10-15T14:51:44.887Z,11.27
2022-10-15T14:54:20.385Z,10.97
2022-10-15T14:56:48.716Z,11.93
2022-10-15T14:59:16.960Z,11.90
2022-10-15T15:01:51.489Z,11.13
2022-10-15T15:04:36.305Z,11.27
2022-10-15T15:07:02.631Z,10.40
2022-10-15T15:09:29.012Z,10.40
2022-10-15T15:11:56.075Z,9.87
2022-10-15T15:14:23.931Z,11.13
2022-10-15T15:16:50.272Z,11.23
2022-10-15T15:19:16.634Z,9.50
2022-10-15T15:21:45.355Z,9.30
2022-10-15T15:24:11.876Z,9.93
2022-10-15T15:26:38.226Z,10.33
2022-10-15T15:29:13.591Z,10.73
2022-10-15T15:31:40.252Z,9.53
2022-10-15T15:34:06.640Z,10.00
2022-10-15T15:36:32.966Z,10.27
2022-10-15T15:38:59.875Z,9.63
2022-10-15T15:41:26.258Z,9.43
2022-10-15T15:43:53.511Z,10.93
2022-10-15T15:46:19.838Z,13.70
2022-10-15T15:48:46.249Z,10.67
2022-10-15T15:51:29.193Z,12.10
2022-10-15T15:53:55.802Z,11.90
2022-10-15T15:56:22.804Z,13.17
2022-10-15T15:58:52.244Z,12.90
2022-10-15T16:01:19.032Z,12.40
2022-10-15T16:03:45.574Z,12.70
2022-10-15T16:06:13.311Z,12.57
2022-10-15T16:08:39.658Z,12.53
2022-10-15T16:11:06.287Z,11.27
2022-10-15T16:13:33.011Z,11.50
2022-10-15T16:15:59.338Z,11.63
2022-10-15T16:18:25.722Z,12.20
2022-10-15T16:20:52.239Z,12.23
2022-10-15T16:23:18.639Z,10.97
2022-10-15T16:25:45.009Z,12.20
2022-10-15T16:28:11.413Z,12.73
2022-10-15T16:30:37.824Z,11.97
2022-10-15T16:33:04.278Z,11.87
2022-10-15T16:35:30.662Z,11.40
2022-10-15T16:37:57.057Z,11.83
2022-10-15T16:40:23.440Z,11.57
2022-10-15T16:42:49.909Z,11.57
2022-10-15T16:45:16.639Z,11.53
2022-10-15T16:47:42.995Z,13.07
2022-10-15T16:50:09.536Z,11.63
2022-10-15T16:52:35.980Z,11.30
2022-10-15T16:55:02.400Z,11.33
2022-10-15T16:57:28.726Z,11.97
2022-10-15T16:59:55.747Z,10.30
2022-10-15T17:02:22.510Z,10.30
2022-10-15T17:04:49.054Z,10.20
2022-10-15T17:07:15.966Z,10.40
2022-10-15T17:09:44.951Z,8.70
2022-10-15T17:12:11.508Z,8.00
2022-10-15T17:14:37.929Z,8.10
2022-10-15T17:17:04.364Z,8.37
2022-10-15T17:19:33.358Z,8.13
2022-10-15T17:22:00.835Z,7.00
2022-10-15T17:24:27.187Z,7.47
2022-10-15T17:26:54.794Z,8.00
2022-10-15T17:29:23.029Z,7.43
2022-10-15T17:31:50.397Z,6.93
2022-10-15T17:34:17.053Z,7.50
2022-10-15T17:36:47.216Z,7.03
2022-10-15T17:39:15.181Z,6.63
2022-10-15T17:41:41.611Z,8.53
2022-10-15T17:44:08.448Z,8.50
2022-10-15T17:46:34.924Z,8.10
2022-10-15T17:49:01.874Z,8.50
2022-10-15T17:51:29.458Z,8.33
2022-10-15T17:53:55.922Z,7.87
2022-10-15T17:56:30.042Z,7.30
2022-10-15T17:58:57.165Z,7.03
2022-10-15T18:01:39.358Z,7.87
2022-10-15T18:04:06.316Z,7.60
2022-10-15T18:06:32.913Z,7.47
2022-10-15T18:09:01.979Z,7.83
2022-10-15T18:11:30.283Z,7.43
2022-10-15T18:13:56.695Z,7.03
2022-10-15T18:16:23.502Z,6.47
2022-10-15T18:18:49.869Z,6.93
2022-10-15T18:21:17.206Z,6.87
2022-10-15T18:23:43.601Z,7.07
2022-10-15T18:26:12.922Z,6.60
2022-10-15T18:28:41.559Z,6.53
2022-10-15T18:31:08.024Z,6.73
2022-10-15T18:33:40.066Z,6.17
2022-10-15T18:36:07.631Z,6.60
2022-10-15T18:38:34.149Z,5.97
2022-10-15T18:41:00.511Z,6.10
2022-10-15T18:43:26.924Z,6.03
2022-10-15T18:45:53.249Z,5.80
2022-10-15T18:48:19.674Z,5.93
2022-10-15T18:53:33.722Z,6.57
2022-10-15T18:56:00.086Z,6.27
2022-10-15T18:58:26.436Z,5.63
2022-10-15T19:00:52.791Z,5.30
2022-10-15T19:03:19.165Z,5.13
2022-10-15T19:05:48.372Z,5.83
2022-10-15T19:08:19.117Z,5.53
2022-10-15T19:10:47.858Z,5.03
2022-10-15T19:13:14.610Z,5.10
2022-10-15T19:15:41.356Z,5.07
2022-10-15T19:18:11.467Z,5.50
2022-10-15T19:20:39.038Z,4.97
2022-10-15T19:23:05.656Z,5.13
2022-10-15T19:25:32.114Z,4.87
2022-10-15T19:27:58.800Z,4.70
2022-10-15T19:30:25.794Z,4.83
2022-10-15T19:32:52.197Z,4.60
2022-10-15T19:35:18.556Z,5.10
2022-10-15T19:37:44.882Z,4.73
2022-10-15T19:40:11.289Z,4.37
2022-10-15T19:42:37.987Z,4.30
2022-10-15T19:45:04.596Z,4.50
2022-10-15T19:47:31.019Z,4.53
2022-10-15T19:49:57.362Z,4.20
2022-10-15T19:52:23.694Z,3.30
2022-10-15T19:54:50.056Z,3.73
2022-10-15T19:57:16.476Z,3.97
2022-10-15T19:59:42.825Z,4.27
2022-10-15T20:02:10.566Z,4.20
2022-10-15T20:04:36.934Z,4.07
2022-10-15T20:07:03.319Z,4.57
2022-10-15T20:09:29.767Z,4.33
2022-10-15T20:11:56.107Z,4.87
2022-10-15T20:14:22.456Z,4.27
2022-10-15T20:16:48.848Z,4.60
2022-10-15T20:19:15.207Z,4.90
2022-10-15T20:21:41.624Z,4.60
2022-10-15T20:24:08.035Z,4.90
2022-10-15T20:26:34.463Z,5.03
2022-10-15T20:29:01.087Z,5.17
2022-10-15T20:31:32.262Z,5.33
2022-10-15T20:33:58.778Z,5.07
2022-10-15T20:36:27.322Z,5.70
2022-10-15T20:38:53.967Z,5.00
2022-10-15T20:41:20.312Z,5.17
2022-10-15T20:43:49.558Z,5.33
2022-10-15T20:46:18.172Z,5.93
2022-10-15T20:48:45.078Z,5.30
2022-10-15T20:51:13.613Z,5.60
2022-10-15T20:53:40.447Z,7.73
2022-10-15T20:56:07.009Z,6.47
2022-10-15T20:58:33.340Z,6.37
2022-10-15T21:00:59.902Z,7.33
2022-10-15T21:03:26.743Z,6.37
2022-10-15T21:05:53.988Z,7.23
2022-10-15T21:08:20.425Z,7.13
2022-10-15T21:10:46.742Z,7.70
2022-10-15T21:13:13.146Z,8.40
2022-10-15T21:15:39.566Z,7.87
2022-10-15T21:18:05.974Z,7.30
2022-10-15T21:20:32.343Z,7.27
2022-10-15T21:22:58.730Z,8.17
2022-10-15T21:25:25.190Z,7.43
2022-10-15T21:27:52.137Z,7.10
2022-10-15T21:30:18.812Z,7.93
2022-10-15T21:32:45.178Z,7.83
2022-10-15T21:35:11.570Z,7.60
2022-10-15T21:37:38.494Z,7.43
2022-10-15T21:40:07.575Z,8.20
2022-10-15T21:42:33.984Z,8.13
2022-10-15T21:45:00.345Z,7.57
2022-10-15T21:47:27.072Z,7.53
2022-10-15T21:49:53.595Z,6.53
2022-10-15T21:52:19.978Z,7.93
2022-10-15T21:54:46.307Z,7.37
2022-10-15T21:57:12.758Z,7.27
2022-10-15T21:59:39.144Z,7.57
2022-10-15T22:02:05.585Z,6.73
2022-10-15T22:04:35.471Z,6.13
2022-10-15T22:07:02.008Z,5.80
2022-10-15T22:09:28.446Z,5.20
2022-10-15T22:11:54.823Z,5.63
2022-10-15T22:14:21.702Z,5.17
2022-10-15T22:16:48.066Z,5.60
2022-10-15T22:19:14.955Z,5.20
2022-10-15T22:21:41.337Z,5.87
2022-10-15T22:24:12.872Z,5.00
2022-10-15T22:26:40.642Z,5.30
2022-10-15T22:29:08.156Z,5.83
2022-10-15T22:31:34.834Z,5.47
2022-10-15T22:34:01.715Z,4.93
2022-10-15T22:36:29.288Z,5.80
2022-10-15T22:38:57.019Z,4.93
2022-10-15T22:41:23.617Z,5.60
2022-10-15T22:43:50.058Z,5.50
2022-10-15T22:46:16.386Z,5.30
2022-10-15T22:48:43.138Z,5.70
2022-10-15T22:51:10.958Z,5.93
2022-10-15T22:53:37.406Z,5.50
2022-10-15T22:56:05.366Z,6.00
2022-10-15T22:58:32.533Z,5.43
2022-10-15T23:01:08.346Z,6.03
2022-10-15T23:03:34.982Z,6.00
2022-10-15T23:06:01.374Z,5.03
2022-10-15T23:08:27.793Z,6.07
2022-10-15T23:10:54.156Z,5.80
2022-10-15T23:13:20.559Z,6.60
2022-10-15T23:15:46.909Z,6.57
2022-10-15T23:18:13.259Z,6.07
2022-10-15T23:20:39.569Z,6.90
2022-10-15T23:23:06.504Z,7.30
2022-10-15T23:25:39.108Z,6.40
2022-10-15T23:28:05.592Z,6.20
2022-10-15T23:30:31.922Z,6.60
2022-10-15T23:32:58.231Z,6.63
2022-10-15T23:35:24.623Z,7.07
2022-10-15T23:37:51.110Z,6.43
2022-10-15T23:40:17.467Z,7.00
2022-10-15T23:42:44.634Z,7.00
2022-10-15T23:45:11.041Z,6.70
2022-10-15T23:47:37.359Z,6.63
2022-10-15T23:50:03.788Z,7.03
2022-10-15T23:52:31.210Z,6.13
2022-10-15T23:54:57.574Z,6.30
2022-10-15T23:57:24.510Z,6.13
2022-10-15T23:59:51.105Z,6.70
